FIN232 EYVI-EFHK
Flight info
| Callsign | FIN232 |
|---|---|
| Flight time | 0h 56m |
| Altitude | 40000 |
| Route | ATMEZ DCT TAGOL DCT LUNIT M983 DOLAT DCT ARSAM DCT INTOR |
| Aircraft | A359/H-SDE2E3GHIJ3J4J5LM1ORWXY/LB1D1 |
Departure
| Time | 2026-05-06 17:38 |
|---|---|
| Airport | Vilnius International Airport (EYVI) |
Arrival
| Time | 2026-05-06 18:35 |
|---|---|
| Airport | Helsinki Vantaa Airport (EFHK) |
| Time | Latitude | Longitude | Altitude | Speed | Heading |
|---|---|---|---|---|---|
| 2026-05-06 17:13 | 54.64387 | 25.28772 | 660 ft | 0 kts | 241° |
| 2026-05-06 17:33 | 54.64386 | 25.28771 | 660 ft | 1 kts | 241° |
| 2026-05-06 17:33 | 54.64378 | 25.28744 | 659 ft | 5 kts | 241° |
| 2026-05-06 17:34 | 54.64343 | 25.28674 | 657 ft | 10 kts | 203° |
| 2026-05-06 17:34 | 54.64255 | 25.28674 | 658 ft | 15 kts | 174° |
| 2026-05-06 17:34 | 54.64141 | 25.28692 | 657 ft | 19 kts | 174° |
| 2026-05-06 17:34 | 54.63995 | 25.28717 | 651 ft | 24 kts | 174° |
| 2026-05-06 17:35 | 54.63812 | 25.28749 | 644 ft | 29 kts | 174° |
| 2026-05-06 17:35 | 54.63594 | 25.28703 | 633 ft | 34 kts | 202° |
| 2026-05-06 17:35 | 54.63365 | 25.28543 | 630 ft | 38 kts | 202° |
| 2026-05-06 17:36 | 54.62845 | 25.28184 | 619 ft | 43 kts | 202° |
| 2026-05-06 17:36 | 54.62588 | 25.28004 | 614 ft | 20 kts | 201° |
| 2026-05-06 17:36 | 54.62503 | 25.27980 | 624 ft | 13 kts | 174° |
| 2026-05-06 17:36 | 54.62410 | 25.27975 | 610 ft | 13 kts | 198° |
| 2026-05-06 17:37 | 54.62388 | 25.27906 | 620 ft | 4 kts | 300° |
| 2026-05-06 17:37 | 54.62421 | 25.27893 | 626 ft | 6 kts | 9° |
| 2026-05-06 17:37 | 54.62449 | 25.27910 | 609 ft | 0 kts | 20° |
| 2026-05-06 17:37 | 54.62487 | 25.27934 | 618 ft | 33 kts | 20° |
| 2026-05-06 17:38 | 54.62972 | 25.28270 | 617 ft | 114 kts | 22° |
| 2026-05-06 17:38 | 54.63896 | 25.28893 | 795 ft | 162 kts | 23° |
| 2026-05-06 17:38 | 54.64947 | 25.29586 | 1734 ft | 162 kts | 26° |
| 2026-05-06 17:38 | 54.66072 | 25.30386 | 2293 ft | 187 kts | 27° |
| 2026-05-06 17:39 | 54.67373 | 25.31328 | 2570 ft | 221 kts | 25° |
| 2026-05-06 17:39 | 54.68862 | 25.32378 | 3055 ft | 243 kts | 23° |
| 2026-05-06 17:39 | 54.70468 | 25.33485 | 3801 ft | 253 kts | 22° |
| 2026-05-06 17:39 | 54.72130 | 25.34632 | 4524 ft | 263 kts | 21° |
| 2026-05-06 17:40 | 54.73862 | 25.35833 | 5294 ft | 271 kts | 20° |
| 2026-05-06 17:40 | 54.75631 | 25.37061 | 6097 ft | 277 kts | 19° |
| 2026-05-06 17:40 | 54.77442 | 25.38321 | 6947 ft | 283 kts | 19° |
| 2026-05-06 17:40 | 54.79291 | 25.39555 | 7827 ft | 286 kts | 15° |
| 2026-05-06 17:41 | 54.81247 | 25.40059 | 8701 ft | 286 kts | 352° |
| 2026-05-06 17:41 | 54.83256 | 25.39536 | 9312 ft | 298 kts | 341° |
| 2026-05-06 17:41 | 54.85302 | 25.38679 | 10085 ft | 309 kts | 340° |
| 2026-05-06 17:41 | 54.87464 | 25.37752 | 10498 ft | 332 kts | 340° |
| 2026-05-06 17:42 | 54.89785 | 25.36778 | 11012 ft | 351 kts | 341° |
| 2026-05-06 17:42 | 54.92186 | 25.35798 | 11863 ft | 357 kts | 341° |
| 2026-05-06 17:42 | 54.94617 | 25.34816 | 12783 ft | 360 kts | 341° |
| 2026-05-06 17:42 | 54.97070 | 25.33824 | 13743 ft | 364 kts | 341° |
| 2026-05-06 17:43 | 54.99557 | 25.32816 | 14526 ft | 369 kts | 342° |
| 2026-05-06 17:43 | 55.02065 | 25.31799 | 15364 ft | 371 kts | 342° |
| 2026-05-06 17:43 | 55.04590 | 25.30774 | 16185 ft | 374 kts | 342° |
| 2026-05-06 17:43 | 55.07138 | 25.29737 | 16991 ft | 378 kts | 342° |
| 2026-05-06 17:44 | 55.09708 | 25.28689 | 17814 ft | 381 kts | 342° |
| 2026-05-06 17:44 | 55.12288 | 25.27636 | 18564 ft | 385 kts | 341° |
| 2026-05-06 17:44 | 55.14911 | 25.26563 | 19259 ft | 390 kts | 341° |
| 2026-05-06 17:44 | 55.17575 | 25.25472 | 19956 ft | 396 kts | 341° |
| 2026-05-06 17:45 | 55.20281 | 25.24362 | 20645 ft | 401 kts | 341° |
| 2026-05-06 17:45 | 55.23015 | 25.23240 | 21324 ft | 407 kts | 341° |
| 2026-05-06 17:45 | 55.25787 | 25.22100 | 22004 ft | 412 kts | 341° |
| 2026-05-06 17:45 | 55.28595 | 25.20967 | 22674 ft | 418 kts | 342° |
| 2026-05-06 17:46 | 55.31514 | 25.20351 | 23346 ft | 430 kts | 354° |
| 2026-05-06 17:46 | 55.34534 | 25.20382 | 23928 ft | 437 kts | 357° |
| 2026-05-06 17:46 | 55.37585 | 25.20680 | 24494 ft | 442 kts | 359° |
| 2026-05-06 17:46 | 55.40662 | 25.21106 | 25110 ft | 446 kts | 0° |
| 2026-05-06 17:47 | 55.43768 | 25.21571 | 25704 ft | 449 kts | 0° |
| 2026-05-06 17:47 | 55.46887 | 25.21900 | 26290 ft | 450 kts | 355° |
| 2026-05-06 17:47 | 55.50039 | 25.21835 | 26768 ft | 455 kts | 353° |
| 2026-05-06 17:47 | 55.53172 | 25.21653 | 27313 ft | 458 kts | 352° |
| 2026-05-06 17:48 | 55.56373 | 25.21397 | 27896 ft | 461 kts | 352° |
| 2026-05-06 17:48 | 55.59587 | 25.21105 | 28444 ft | 465 kts | 352° |
| 2026-05-06 17:48 | 55.62834 | 25.20798 | 28948 ft | 470 kts | 352° |
| 2026-05-06 17:48 | 55.66111 | 25.20488 | 29468 ft | 473 kts | 352° |
| 2026-05-06 17:49 | 55.69412 | 25.20182 | 29980 ft | 477 kts | 352° |
| 2026-05-06 17:49 | 55.72742 | 25.19879 | 30398 ft | 480 kts | 352° |
| 2026-05-06 17:49 | 55.76092 | 25.19578 | 30827 ft | 483 kts | 352° |
| 2026-05-06 17:49 | 55.79460 | 25.19278 | 31252 ft | 486 kts | 352° |
| 2026-05-06 17:50 | 55.82850 | 25.18977 | 31675 ft | 489 kts | 352° |
| 2026-05-06 17:50 | 55.86264 | 25.18673 | 32070 ft | 492 kts | 352° |
| 2026-05-06 17:50 | 55.89698 | 25.18366 | 32488 ft | 495 kts | 352° |
| 2026-05-06 17:50 | 55.93147 | 25.18058 | 32903 ft | 498 kts | 352° |
| 2026-05-06 17:51 | 55.96607 | 25.17747 | 33272 ft | 501 kts | 352° |
| 2026-05-06 17:51 | 56.00105 | 25.17432 | 33628 ft | 503 kts | 352° |
| 2026-05-06 17:51 | 56.03609 | 25.17116 | 33989 ft | 506 kts | 352° |
| 2026-05-06 17:51 | 56.07152 | 25.16794 | 34177 ft | 511 kts | 352° |
| 2026-05-06 17:52 | 56.10711 | 25.16471 | 34451 ft | 514 kts | 352° |
| 2026-05-06 17:52 | 56.14275 | 25.16151 | 34888 ft | 512 kts | 352° |
| 2026-05-06 17:52 | 56.16628 | 25.15941 | 35200 ft | 510 kts | 352° |
| 2026-05-06 17:52 | 56.21314 | 25.15512 | 35769 ft | 508 kts | 352° |
| 2026-05-06 17:53 | 56.23698 | 25.15287 | 36046 ft | 507 kts | 352° |
| 2026-05-06 17:53 | 56.27214 | 25.14950 | 36425 ft | 507 kts | 352° |
| 2026-05-06 17:53 | 56.31875 | 25.14501 | 36909 ft | 506 kts | 352° |
| 2026-05-06 17:53 | 56.35386 | 25.14162 | 37277 ft | 505 kts | 352° |
| 2026-05-06 17:54 | 56.38894 | 25.13824 | 37647 ft | 504 kts | 352° |
| 2026-05-06 17:54 | 56.41257 | 25.13596 | 37892 ft | 503 kts | 352° |
| 2026-05-06 17:54 | 56.44749 | 25.13259 | 38241 ft | 503 kts | 352° |
| 2026-05-06 17:54 | 56.48239 | 25.12922 | 38610 ft | 501 kts | 352° |
| 2026-05-06 17:55 | 56.51714 | 25.12587 | 38928 ft | 499 kts | 352° |
| 2026-05-06 17:55 | 56.55169 | 25.12253 | 39156 ft | 499 kts | 352° |
| 2026-05-06 17:55 | 56.58646 | 25.11915 | 39378 ft | 499 kts | 352° |
| 2026-05-06 17:55 | 56.62064 | 25.11581 | 39621 ft | 499 kts | 352° |
| 2026-05-06 17:56 | 56.65570 | 25.11239 | 39843 ft | 498 kts | 352° |
| 2026-05-06 17:56 | 56.69039 | 25.10898 | 39929 ft | 501 kts | 352° |
| 2026-05-06 17:56 | 56.75960 | 25.10220 | 39938 ft | 500 kts | 352° |
| 2026-05-06 17:57 | 56.82911 | 25.09539 | 39939 ft | 500 kts | 352° |
| 2026-05-06 17:57 | 56.89851 | 25.08855 | 39938 ft | 499 kts | 352° |
| 2026-05-06 17:58 | 56.96794 | 25.08167 | 39945 ft | 499 kts | 352° |
| 2026-05-06 17:58 | 57.03726 | 25.07478 | 39945 ft | 499 kts | 352° |
| 2026-05-06 17:59 | 57.10665 | 25.06786 | 39956 ft | 499 kts | 352° |
| 2026-05-06 17:59 | 57.17581 | 25.06094 | 39975 ft | 498 kts | 352° |
| 2026-05-06 18:00 | 57.24503 | 25.05397 | 39960 ft | 498 kts | 352° |
| 2026-05-06 18:00 | 57.31422 | 25.04716 | 39969 ft | 499 kts | 352° |
| 2026-05-06 18:01 | 57.38365 | 25.04095 | 39980 ft | 499 kts | 352° |
| 2026-05-06 18:01 | 57.45278 | 25.03484 | 39975 ft | 499 kts | 352° |
| 2026-05-06 18:02 | 57.52165 | 25.02865 | 39977 ft | 499 kts | 352° |
| 2026-05-06 18:02 | 57.59055 | 25.02239 | 39967 ft | 499 kts | 352° |
| 2026-05-06 18:03 | 57.65942 | 25.01609 | 39970 ft | 499 kts | 352° |
| 2026-05-06 18:03 | 57.72783 | 25.00982 | 39982 ft | 498 kts | 352° |
| 2026-05-06 18:04 | 57.79726 | 25.00341 | 39702 ft | 502 kts | 352° |
| 2026-05-06 18:04 | 57.83219 | 25.00016 | 39475 ft | 503 kts | 352° |
| 2026-05-06 18:04 | 57.86710 | 24.99693 | 39248 ft | 504 kts | 352° |
| 2026-05-06 18:05 | 57.90211 | 24.99370 | 39021 ft | 504 kts | 352° |
| 2026-05-06 18:05 | 57.93711 | 24.99047 | 38803 ft | 504 kts | 352° |
| 2026-05-06 18:05 | 57.97214 | 24.98722 | 38560 ft | 504 kts | 352° |
| 2026-05-06 18:05 | 58.00727 | 24.98590 | 38295 ft | 509 kts | 359° |
| 2026-05-06 18:06 | 58.04263 | 24.99185 | 38027 ft | 511 kts | 1° |
| 2026-05-06 18:06 | 58.07791 | 24.99949 | 37754 ft | 512 kts | 2° |
| 2026-05-06 18:06 | 58.11330 | 25.00812 | 37481 ft | 514 kts | 3° |
| 2026-05-06 18:06 | 58.14881 | 25.01723 | 37200 ft | 514 kts | 3° |
| 2026-05-06 18:07 | 58.18427 | 25.02646 | 36945 ft | 515 kts | 3° |
| 2026-05-06 18:07 | 58.21985 | 25.03570 | 36679 ft | 516 kts | 3° |
| 2026-05-06 18:07 | 58.25543 | 25.04486 | 36419 ft | 517 kts | 3° |
| 2026-05-06 18:07 | 58.29111 | 25.05399 | 36180 ft | 517 kts | 3° |
| 2026-05-06 18:08 | 58.32685 | 25.06309 | 35925 ft | 518 kts | 3° |
| 2026-05-06 18:08 | 58.36258 | 25.07217 | 35674 ft | 518 kts | 3° |
| 2026-05-06 18:08 | 58.39824 | 25.08125 | 35424 ft | 517 kts | 3° |
| 2026-05-06 18:08 | 58.43390 | 25.09035 | 35184 ft | 515 kts | 3° |
| 2026-05-06 18:09 | 58.46937 | 25.09942 | 34937 ft | 514 kts | 3° |
| 2026-05-06 18:09 | 58.50480 | 25.10850 | 34704 ft | 512 kts | 3° |
| 2026-05-06 18:09 | 58.54000 | 25.11754 | 34416 ft | 507 kts | 4° |
| 2026-05-06 18:09 | 58.57479 | 25.12652 | 33984 ft | 503 kts | 3° |
| 2026-05-06 18:10 | 58.60931 | 25.13544 | 33391 ft | 499 kts | 3° |
| 2026-05-06 18:10 | 58.64363 | 25.14431 | 32856 ft | 495 kts | 3° |
| 2026-05-06 18:10 | 58.67759 | 25.15310 | 32340 ft | 491 kts | 3° |
| 2026-05-06 18:10 | 58.71142 | 25.16188 | 31822 ft | 487 kts | 3° |
| 2026-05-06 18:11 | 58.74438 | 25.17043 | 31325 ft | 483 kts | 3° |
| 2026-05-06 18:11 | 58.77758 | 25.17907 | 30818 ft | 480 kts | 3° |
| 2026-05-06 18:11 | 58.81060 | 25.18767 | 30314 ft | 477 kts | 3° |
| 2026-05-06 18:11 | 58.84338 | 25.19622 | 29769 ft | 474 kts | 3° |
| 2026-05-06 18:12 | 58.87593 | 25.20475 | 29270 ft | 469 kts | 2° |
| 2026-05-06 18:12 | 58.90809 | 25.21319 | 28751 ft | 465 kts | 2° |
| 2026-05-06 18:12 | 58.94002 | 25.22159 | 28250 ft | 461 kts | 2° |
| 2026-05-06 18:12 | 58.97181 | 25.22996 | 27756 ft | 457 kts | 2° |
| 2026-05-06 18:13 | 59.00311 | 25.23822 | 27268 ft | 453 kts | 2° |
| 2026-05-06 18:13 | 59.03427 | 25.24645 | 26777 ft | 450 kts | 2° |
| 2026-05-06 18:13 | 59.06518 | 25.25462 | 26273 ft | 447 kts | 2° |
| 2026-05-06 18:13 | 59.09591 | 25.26275 | 25797 ft | 444 kts | 2° |
| 2026-05-06 18:14 | 59.12639 | 25.27084 | 25292 ft | 441 kts | 2° |
| 2026-05-06 18:14 | 59.15675 | 25.27891 | 24808 ft | 439 kts | 2° |
| 2026-05-06 18:14 | 59.18689 | 25.28693 | 24309 ft | 437 kts | 2° |
| 2026-05-06 18:14 | 59.21693 | 25.29495 | 23809 ft | 434 kts | 2° |
| 2026-05-06 18:15 | 59.24679 | 25.30293 | 23250 ft | 432 kts | 2° |
| 2026-05-06 18:15 | 59.27649 | 25.31089 | 22742 ft | 428 kts | 2° |
| 2026-05-06 18:15 | 59.30588 | 25.31879 | 22248 ft | 424 kts | 2° |
| 2026-05-06 18:15 | 59.33494 | 25.32662 | 21739 ft | 420 kts | 2° |
| 2026-05-06 18:16 | 59.36370 | 25.33438 | 21255 ft | 416 kts | 2° |
| 2026-05-06 18:16 | 59.39225 | 25.34209 | 20770 ft | 412 kts | 2° |
| 2026-05-06 18:16 | 59.42056 | 25.34968 | 20276 ft | 408 kts | 2° |
| 2026-05-06 18:16 | 59.44793 | 25.35121 | 19853 ft | 394 kts | 348° |
| 2026-05-06 18:17 | 59.47497 | 25.34312 | 19390 ft | 384 kts | 342° |
| 2026-05-06 18:17 | 59.50095 | 25.33261 | 18926 ft | 379 kts | 341° |
| 2026-05-06 18:17 | 59.52654 | 25.32163 | 18492 ft | 374 kts | 340° |
| 2026-05-06 18:17 | 59.55180 | 25.31058 | 18012 ft | 369 kts | 341° |
| 2026-05-06 18:18 | 59.57669 | 25.29958 | 17553 ft | 363 kts | 341° |
| 2026-05-06 18:18 | 59.60115 | 25.28873 | 17130 ft | 357 kts | 341° |
| 2026-05-06 18:18 | 59.62517 | 25.27801 | 16708 ft | 351 kts | 341° |
| 2026-05-06 18:18 | 59.64882 | 25.26743 | 16283 ft | 346 kts | 341° |
| 2026-05-06 18:19 | 59.67211 | 25.25699 | 15874 ft | 341 kts | 342° |
| 2026-05-06 18:19 | 59.69509 | 25.24666 | 15449 ft | 336 kts | 342° |
| 2026-05-06 18:19 | 59.71771 | 25.23648 | 15030 ft | 332 kts | 342° |
| 2026-05-06 18:19 | 59.73979 | 25.22653 | 14635 ft | 327 kts | 342° |
| 2026-05-06 18:20 | 59.76186 | 25.21657 | 14244 ft | 323 kts | 343° |
| 2026-05-06 18:20 | 59.78369 | 25.20670 | 13842 ft | 321 kts | 343° |
| 2026-05-06 18:20 | 59.80517 | 25.19710 | 13645 ft | 310 kts | 343° |
| 2026-05-06 18:20 | 59.82628 | 25.19318 | 13520 ft | 303 kts | 359° |
| 2026-05-06 18:21 | 59.84657 | 25.20245 | 13394 ft | 296 kts | 16° |
| 2026-05-06 18:21 | 59.86546 | 25.21776 | 13158 ft | 291 kts | 19° |
| 2026-05-06 18:21 | 59.88393 | 25.23374 | 12831 ft | 289 kts | 19° |
| 2026-05-06 18:21 | 59.90275 | 25.24693 | 12513 ft | 283 kts | 7° |
| 2026-05-06 18:22 | 59.92208 | 25.24930 | 12243 ft | 276 kts | 353° |
| 2026-05-06 18:22 | 59.94115 | 25.24705 | 11952 ft | 274 kts | 352° |
| 2026-05-06 18:22 | 59.96014 | 25.24417 | 11661 ft | 273 kts | 352° |
| 2026-05-06 18:22 | 59.97900 | 25.24134 | 11354 ft | 270 kts | 352° |
| 2026-05-06 18:23 | 59.99762 | 25.23860 | 11064 ft | 268 kts | 352° |
| 2026-05-06 18:23 | 60.01616 | 25.23591 | 10774 ft | 267 kts | 353° |
| 2026-05-06 18:23 | 60.03465 | 25.23325 | 10486 ft | 266 kts | 353° |
| 2026-05-06 18:23 | 60.05293 | 25.23063 | 10202 ft | 264 kts | 353° |
| 2026-05-06 18:24 | 60.07108 | 25.22803 | 9910 ft | 265 kts | 353° |
| 2026-05-06 18:24 | 60.09007 | 25.22528 | 9726 ft | 280 kts | 353° |
| 2026-05-06 18:24 | 60.10956 | 25.22248 | 9573 ft | 279 kts | 354° |
| 2026-05-06 18:24 | 60.12896 | 25.21973 | 9057 ft | 280 kts | 354° |
| 2026-05-06 18:25 | 60.14832 | 25.21698 | 8657 ft | 277 kts | 354° |
| 2026-05-06 18:25 | 60.16744 | 25.21426 | 8348 ft | 275 kts | 354° |
| 2026-05-06 18:25 | 60.18648 | 25.21154 | 8045 ft | 273 kts | 354° |
| 2026-05-06 18:25 | 60.20533 | 25.20883 | 7747 ft | 271 kts | 355° |
| 2026-05-06 18:26 | 60.22414 | 25.20613 | 7439 ft | 270 kts | 355° |
| 2026-05-06 18:26 | 60.24286 | 25.20347 | 7153 ft | 268 kts | 355° |
| 2026-05-06 18:26 | 60.26137 | 25.20083 | 6842 ft | 266 kts | 355° |
| 2026-05-06 18:26 | 60.27976 | 25.19815 | 6540 ft | 264 kts | 355° |
| 2026-05-06 18:27 | 60.29800 | 25.19610 | 6278 ft | 260 kts | 0° |
| 2026-05-06 18:27 | 60.31517 | 25.20305 | 6146 ft | 247 kts | 24° |
| 2026-05-06 18:27 | 60.32865 | 25.22280 | 6029 ft | 235 kts | 44° |
| 2026-05-06 18:27 | 60.33967 | 25.24664 | 5847 ft | 231 kts | 47° |
| 2026-05-06 18:28 | 60.35023 | 25.27051 | 5584 ft | 231 kts | 47° |
| 2026-05-06 18:28 | 60.36095 | 25.29470 | 5338 ft | 231 kts | 47° |
| 2026-05-06 18:28 | 60.37183 | 25.31910 | 5079 ft | 231 kts | 46° |
| 2026-05-06 18:28 | 60.38280 | 25.34263 | 4815 ft | 229 kts | 41° |
| 2026-05-06 18:29 | 60.39639 | 25.35850 | 4574 ft | 227 kts | 14° |
| 2026-05-06 18:29 | 60.41179 | 25.35809 | 4339 ft | 226 kts | 342° |
| 2026-05-06 18:29 | 60.42510 | 25.34229 | 4092 ft | 223 kts | 320° |
| 2026-05-06 18:29 | 60.43639 | 25.32171 | 3977 ft | 212 kts | 317° |
| 2026-05-06 18:30 | 60.44663 | 25.30161 | 3949 ft | 198 kts | 312° |
| 2026-05-06 18:30 | 60.45250 | 25.27795 | 3848 ft | 185 kts | 275° |
| 2026-05-06 18:30 | 60.45014 | 25.25377 | 3854 ft | 167 kts | 249° |
| 2026-05-06 18:30 | 60.44481 | 25.23373 | 3690 ft | 162 kts | 236° |
| 2026-05-06 18:31 | 60.43701 | 25.21480 | 3423 ft | 183 kts | 230° |
| 2026-05-06 18:31 | 60.42848 | 25.19540 | 3123 ft | 186 kts | 229° |
| 2026-05-06 18:31 | 60.41982 | 25.17618 | 2850 ft | 184 kts | 229° |
| 2026-05-06 18:31 | 60.41127 | 25.15731 | 2585 ft | 181 kts | 228° |
| 2026-05-06 18:32 | 60.40283 | 25.13858 | 2336 ft | 178 kts | 228° |
| 2026-05-06 18:32 | 60.39489 | 25.12098 | 2116 ft | 171 kts | 228° |
| 2026-05-06 18:32 | 60.38709 | 25.10375 | 1871 ft | 161 kts | 228° |
| 2026-05-06 18:32 | 60.37977 | 25.08755 | 1668 ft | 152 kts | 228° |
| 2026-05-06 18:33 | 60.37317 | 25.07296 | 1460 ft | 140 kts | 228° |
| 2026-05-06 18:33 | 60.36683 | 25.05895 | 1285 ft | 130 kts | 229° |
| 2026-05-06 18:33 | 60.36090 | 25.04585 | 1097 ft | 124 kts | 228° |
| 2026-05-06 18:33 | 60.35510 | 25.03301 | 944 ft | 124 kts | 229° |
| 2026-05-06 18:34 | 60.34921 | 25.01989 | 750 ft | 126 kts | 228° |
| 2026-05-06 18:34 | 60.34333 | 25.00683 | 586 ft | 125 kts | 227° |
| 2026-05-06 18:34 | 60.33753 | 24.99418 | 399 ft | 124 kts | 226° |
| 2026-05-06 18:34 | 60.33221 | 24.98257 | 252 ft | 125 kts | 228° |
| 2026-05-06 18:35 | 60.32668 | 24.97033 | 178 ft | 117 kts | 228° |
| 2026-05-06 18:35 | 60.32264 | 24.96131 | 188 ft | 49 kts | 227° |
| 2026-05-06 18:35 | 60.32124 | 24.95824 | 182 ft | 17 kts | 227° |
| 2026-05-06 18:35 | 60.32023 | 24.95850 | 180 ft | 17 kts | 135° |
| 2026-05-06 18:36 | 60.31992 | 24.95909 | 179 ft | 0 kts | 137° |
| 2026-05-06 18:36 | 60.31987 | 24.95918 | 178 ft | 3 kts | 137° |
| 2026-05-06 18:36 | 60.31960 | 24.95969 | 177 ft | 8 kts | 137° |
| 2026-05-06 18:37 | 60.31898 | 24.96087 | 173 ft | 15 kts | 137° |
| 2026-05-06 18:37 | 60.31839 | 24.96120 | 173 ft | 13 kts | 195° |
| 2026-05-06 18:37 | 60.31809 | 24.96078 | 173 ft | 2 kts | 221° |
| 2026-05-06 18:37 | 60.31802 | 24.96064 | 173 ft | 0 kts | 221° |
| 2026-05-06 18:38 | 60.31800 | 24.96062 | 173 ft | 3 kts | 221° |
| 2026-05-06 18:38 | 60.31741 | 24.95954 | 173 ft | 3 kts | 206° |
| 2026-05-06 18:38 | 60.31714 | 24.95960 | 173 ft | 5 kts | 159° |
| 2026-05-06 18:39 | 60.31692 | 24.95990 | 173 ft | 7 kts | 140° |
| 2026-05-06 18:39 | 60.31685 | 24.96004 | 173 ft | 0 kts | 136° |
| 2026-05-06 18:39 | 60.31676 | 24.96021 | 173 ft | 3 kts | 137° |
| 2026-05-06 18:40 | 60.31672 | 24.96028 | 173 ft | 0 kts | 137° |